KTGI

Details ICAO KTGI
Name TANGIER ISLAND
Region United States
Timezone America/New_York (UTC-5.0)
Plans Departing 4
Arriving 7
Stats Elevation 5 ft / 2 m (AMSL)
Location 37.825083° -75.997666°
Runways 1
Magnetic Variation 11.206° W
Sunrise 2017-12-16 12:14:30 UTC / 2017-12-16 07:14:30 Local
Sunset 2017-12-16 21:47:42 UTC / 2017-12-16 16:47:42 Local
Advertisement - Login to hide

Runways

ID Width Length Bearing (true) Bearing (mag) Surface Threshold Offset Overrun Length
02 75 ft / 23 m 3,005 ft / 916 m 7.35° 18.56° Asphalt 0 ft / 0 m 0 ft / 0 m
20 75 ft / 23 m 3,005 ft / 916 m 187.35° 198.56° Asphalt 98 ft / 30 m 0 ft / 0 m

Map

Weather


0- 5 10 15 20 25 30 35+ Temperature / ° C

Clouds and Precipitation
Forecast for 2017-12-16 06:00 UTC. Updated 2 minutes ago

Ground ~20,000 ft ~40,000 ft Winds

METAR

KTGI 160459Z AUTO 28011KT 10SM CLR 02/M02 A3004 RMK AO1

TAF

Not found

Frequencies

Unicom 122.80 MHz CTAF/UNICOM
Approach 120.05 MHz PATUXENT APP/DEP
Warning: Do not use this data for real-world aviation or navigation. No guarantee of current accuracy is given.